createdAt,value
2022-12-24T00:00:47.130Z,98874.19
2022-12-24T00:05:48.762Z,98883.88
2022-12-24T00:10:52.180Z,98882.88
2022-12-24T00:15:53.807Z,98896.88
2022-12-24T00:20:55.469Z,98924.19
2022-12-24T00:25:57.072Z,98908.94
2022-12-24T00:30:59.849Z,98918.47
2022-12-24T00:36:01.562Z,98933.31
2022-12-24T00:41:05.704Z,98906.84
2022-12-24T00:46:07.347Z,98906.75
2022-12-24T00:51:09.004Z,98919.84
2022-12-24T00:56:10.650Z,98937.59
2022-12-24T01:01:12.681Z,98954.75
2022-12-24T01:06:18.264Z,98953.19
2022-12-24T01:11:19.959Z,98961.06
2022-12-24T01:16:21.820Z,98968.53
2022-12-24T01:21:23.570Z,98971.94
2022-12-24T01:26:25.225Z,98977.56
2022-12-24T01:31:26.929Z,98996.50
2022-12-24T01:36:28.588Z,98983.59
2022-12-24T01:41:50.169Z,98991.97
2022-12-24T01:47:04.802Z,99003.78
2022-12-24T01:52:09.664Z,99012.75
2022-12-24T01:57:18.427Z,99024.38
2022-12-24T02:02:20.551Z,99028.06
2022-12-24T02:07:23.084Z,99035.94
2022-12-24T02:12:26.469Z,99041.19
2022-12-24T02:17:43.372Z,99038.16
2022-12-24T02:22:50.723Z,99044.25
2022-12-24T02:27:58.272Z,99044.91
2022-12-24T02:33:02.668Z,99059.66
2022-12-24T02:38:07.587Z,99066.31
2022-12-24T02:43:20.282Z,99080.00
2022-12-24T02:48:23.729Z,99087.38
2022-12-24T02:53:25.412Z,99088.03
2022-12-24T02:58:42.128Z,99099.38
2022-12-24T03:03:46.670Z,99100.09
2022-12-24T03:08:55.094Z,99112.88
2022-12-24T03:13:58.853Z,99129.56
2022-12-24T03:19:01.098Z,99126.53
2022-12-24T03:24:02.883Z,99131.59
2022-12-24T03:29:09.100Z,99130.06
2022-12-24T03:34:11.782Z,99129.84
2022-12-24T03:39:13.568Z,99134.13
2022-12-24T03:44:15.281Z,99139.75
2022-12-24T03:49:16.934Z,99142.59
2022-12-24T03:54:18.557Z,99147.59
2022-12-24T03:59:20.195Z,99154.16
2022-12-24T04:04:21.799Z,99158.22
2022-12-24T04:09:23.443Z,99161.06
2022-12-24T04:14:25.280Z,99162.81
2022-12-24T04:19:26.969Z,99169.75
2022-12-24T04:24:28.638Z,99167.56
2022-12-24T04:29:30.267Z,99174.66
2022-12-24T04:34:31.999Z,99183.91
2022-12-24T04:39:33.643Z,99188.06
2022-12-24T04:44:35.266Z,99215.69
2022-12-24T04:49:36.835Z,99208.09
2022-12-24T04:54:38.476Z,99216.81
2022-12-24T04:59:40.114Z,99236.41
2022-12-24T05:04:41.857Z,99220.31
2022-12-24T05:09:43.438Z,99255.44
2022-12-24T05:14:45.075Z,99256.31
2022-12-24T05:19:46.699Z,99266.16
2022-12-24T05:25:06.572Z,99287.66
2022-12-24T05:30:08.934Z,99291.28
2022-12-24T05:35:10.611Z,99288.78
2022-12-24T05:40:12.303Z,99297.53
2022-12-24T05:45:13.970Z,99293.72
2022-12-24T05:50:15.617Z,99299.13
2022-12-24T05:55:17.283Z,99312.28
2022-12-24T06:00:19.332Z,99312.34
2022-12-24T06:05:21.153Z,99323.53
2022-12-24T06:10:23.275Z,99336.47
2022-12-24T06:15:24.943Z,99347.00
2022-12-24T06:20:26.572Z,99380.69
2022-12-24T06:25:28.229Z,99367.47
2022-12-24T06:30:29.812Z,99385.91
2022-12-24T06:35:32.437Z,99384.19
2022-12-24T06:40:34.040Z,99391.94
2022-12-24T06:45:35.665Z,99397.44
2022-12-24T06:50:37.271Z,99399.44
2022-12-24T06:55:39.808Z,99408.31
2022-12-24T07:00:41.446Z,99418.88
2022-12-24T07:05:43.107Z,99431.22
2022-12-24T07:10:49.067Z,99442.94
2022-12-24T07:16:03.385Z,99457.16
2022-12-24T07:21:05.623Z,99469.22
2022-12-24T07:26:07.527Z,99482.97
2022-12-24T07:31:09.250Z,99480.41
2022-12-24T07:36:16.095Z,99492.50
2022-12-24T07:41:17.689Z,99491.13
2022-12-24T07:46:19.357Z,99505.56
2022-12-24T07:51:21.054Z,99515.44
2022-12-24T07:56:22.782Z,99522.13
2022-12-24T08:01:24.479Z,99518.63
2022-12-24T08:06:26.219Z,99521.97
2022-12-24T08:11:27.826Z,99523.63
2022-12-24T08:16:29.529Z,99533.66
2022-12-24T08:21:31.195Z,99542.69
2022-12-24T08:26:32.831Z,99558.25
2022-12-24T08:31:37.545Z,99578.41
2022-12-24T08:36:39.250Z,99592.59
2022-12-24T08:41:40.867Z,99593.09
2022-12-24T08:46:42.635Z,99602.63
2022-12-24T08:51:44.310Z,99616.34
2022-12-24T08:56:45.936Z,99623.56
2022-12-24T09:01:47.840Z,99639.44
2022-12-24T09:06:49.687Z,99643.63
2022-12-24T09:11:51.416Z,99639.78
2022-12-24T09:16:53.094Z,99643.28
2022-12-24T09:21:55.194Z,99658.19
2022-12-24T09:26:58.307Z,99661.16
2022-12-24T09:32:00.072Z,99673.84
2022-12-24T09:37:03.105Z,99678.56
2022-12-24T09:42:28.560Z,99689.97
2022-12-24T09:47:40.111Z,99700.50
2022-12-24T09:52:44.163Z,99708.69
2022-12-24T09:57:47.712Z,99710.72
2022-12-24T10:02:50.028Z,99727.16
2022-12-24T10:08:09.722Z,99721.59
2022-12-24T10:13:20.504Z,99730.50
2022-12-24T10:18:34.920Z,99733.38
2022-12-24T10:23:54.875Z,99752.63
2022-12-24T10:28:57.300Z,99749.63
2022-12-24T10:34:03.545Z,99758.50
2022-12-24T10:39:05.248Z,99748.97
2022-12-24T10:44:12.132Z,99754.31
2022-12-24T10:49:20.179Z,99757.63
2022-12-24T10:54:27.701Z,99762.69
2022-12-24T10:59:30.972Z,99781.94
2022-12-24T11:04:33.260Z,99781.75
2022-12-24T11:09:37.956Z,99788.78
2022-12-24T11:14:40.143Z,99791.47
2022-12-24T11:19:48.793Z,99783.94
2022-12-24T11:25:19.221Z,99809.56
2022-12-24T11:30:31.769Z,99803.53
2022-12-24T11:35:34.554Z,99813.25
2022-12-24T11:40:42.501Z,99822.31
2022-12-24T11:45:55.831Z,99823.31
2022-12-24T11:51:01.307Z,99826.66
2022-12-24T11:56:07.251Z,99842.75
2022-12-24T12:01:25.120Z,99841.44
2022-12-24T12:06:46.885Z,99847.94
2022-12-24T12:11:52.835Z,99857.00
2022-12-24T12:17:12.947Z,99849.94
2022-12-24T12:23:02.732Z,99854.84
2022-12-24T12:28:16.487Z,99855.81
2022-12-24T12:33:31.650Z,99858.19
2022-12-24T12:38:33.288Z,99859.03
2022-12-24T12:44:02.296Z,99872.59
2022-12-24T12:49:28.236Z,99870.91
2022-12-24T12:54:43.938Z,99867.25
2022-12-24T13:00:06.552Z,99874.13
2022-12-24T13:05:25.745Z,99871.28
2022-12-24T13:10:52.118Z,99870.94
2022-12-24T13:16:09.010Z,99885.00
2022-12-24T13:21:18.867Z,99876.44
2022-12-24T13:26:20.580Z,99882.00
2022-12-24T13:31:24.656Z,99878.63
2022-12-24T13:37:03.942Z,99877.94
2022-12-24T13:42:06.932Z,99881.16
2022-12-24T13:47:14.546Z,99893.69
2022-12-24T13:52:19.773Z,99888.34
2022-12-24T13:57:40.049Z,99897.91
2022-12-24T14:02:55.623Z,99889.00
2022-12-24T14:07:58.859Z,99902.75
2022-12-24T14:13:00.708Z,99901.25
2022-12-24T14:18:02.490Z,99911.16
2022-12-24T14:23:06.459Z,99918.19
2022-12-24T14:28:17.347Z,99931.28
2022-12-24T14:33:30.016Z,99945.53
2022-12-24T14:38:32.443Z,99945.03
2022-12-24T14:44:07.160Z,99954.75
2022-12-24T14:49:38.425Z,99954.25
2022-12-24T14:54:44.280Z,99968.66
2022-12-24T14:59:50.710Z,99963.47
2022-12-24T15:05:16.972Z,99978.84
2022-12-24T15:10:31.459Z,99972.66
2022-12-24T15:15:34.226Z,99979.84
2022-12-24T15:20:36.477Z,99986.06
2022-12-24T15:25:38.181Z,99992.38
2022-12-24T15:30:40.282Z,99997.94
2022-12-24T15:35:55.736Z,100014.38
2022-12-24T15:40:58.263Z,100014.03
2022-12-24T15:46:00.501Z,100021.38
2022-12-24T15:51:03.106Z,100018.69
2022-12-24T15:56:09.179Z,100026.72
2022-12-24T16:01:13.898Z,100025.53
2022-12-24T16:06:16.024Z,100046.34
2022-12-24T16:11:19.575Z,100072.47
2022-12-24T16:16:35.696Z,100078.72
2022-12-24T16:21:41.510Z,100062.91
2022-12-24T16:26:43.177Z,100080.00
2022-12-24T16:31:53.240Z,100087.34
2022-12-24T16:36:55.821Z,100082.63
2022-12-24T16:42:18.131Z,100107.56
2022-12-24T16:47:22.832Z,100114.75
2022-12-24T16:52:28.503Z,100114.28
2022-12-24T16:57:33.822Z,100116.06
2022-12-24T17:02:35.702Z,100110.47
2022-12-24T17:07:43.160Z,100115.63
2022-12-24T17:12:45.663Z,100118.69
2022-12-24T17:17:47.401Z,100123.19
2022-12-24T17:22:49.553Z,100146.59
2022-12-24T17:27:51.153Z,100140.19
2022-12-24T17:32:52.761Z,100143.56
2022-12-24T17:37:54.371Z,100132.88
2022-12-24T17:42:56.014Z,100142.44
2022-12-24T17:47:57.701Z,100158.66
2022-12-24T17:52:59.437Z,100159.38
2022-12-24T17:58:01.306Z,100156.56
2022-12-24T18:03:03.074Z,100176.13
2022-12-24T18:08:04.938Z,100176.91
2022-12-24T18:13:07.177Z,100184.31
2022-12-24T18:18:10.213Z,100192.44
2022-12-24T18:23:12.078Z,100177.28
2022-12-24T18:28:13.864Z,100188.34
2022-12-24T18:33:15.608Z,100197.78
2022-12-24T18:38:17.286Z,100202.09
2022-12-24T18:43:19.325Z,100191.94
2022-12-24T18:48:20.989Z,100202.75
2022-12-24T18:53:22.835Z,100215.53
2022-12-24T18:58:24.540Z,100209.38
2022-12-24T19:03:26.198Z,100204.22
2022-12-24T19:08:56.552Z,100194.69
2022-12-24T19:13:49.891Z,100203.97
2022-12-24T19:18:51.642Z,100220.00
2022-12-24T19:23:53.260Z,100223.63
2022-12-24T19:28:54.953Z,100230.91
2022-12-24T19:33:57.011Z,100238.25
2022-12-24T19:38:58.843Z,100244.44
2022-12-24T19:44:01.612Z,100258.06
2022-12-24T19:49:06.519Z,100272.81
2022-12-24T19:54:14.883Z,100271.41
2022-12-24T19:59:20.161Z,100262.41
2022-12-24T20:04:22.164Z,100272.81
2022-12-24T20:09:23.806Z,100269.41
2022-12-24T20:14:25.409Z,100283.16
2022-12-24T20:19:26.981Z,100295.25
2022-12-24T20:24:28.695Z,100290.19
2022-12-24T20:29:30.355Z,100298.06
2022-12-24T20:34:32.013Z,100294.00
2022-12-24T20:39:33.724Z,100285.84
2022-12-24T20:44:35.319Z,100290.75
2022-12-24T20:49:36.958Z,100292.63
2022-12-24T20:54:38.549Z,100286.72
2022-12-24T20:59:42.068Z,100292.75
2022-12-24T21:04:45.136Z,100291.63
2022-12-24T21:09:46.772Z,100296.13
2022-12-24T21:14:48.416Z,100299.34
2022-12-24T21:19:50.070Z,100304.59
2022-12-24T21:24:53.972Z,100300.06
2022-12-24T21:29:56.127Z,100310.34
2022-12-24T21:34:57.716Z,100311.88
2022-12-24T21:39:59.345Z,100313.72
2022-12-24T21:45:02.097Z,100318.94
2022-12-24T21:50:26.830Z,100322.31
2022-12-24T21:55:33.345Z,100329.19
2022-12-24T22:00:35.394Z,100330.47
2022-12-24T22:05:37.048Z,100342.97
2022-12-24T22:10:57.665Z,100343.66
2022-12-24T22:15:59.357Z,100353.22
2022-12-24T22:21:02.461Z,100345.94
2022-12-24T22:26:14.591Z,100363.03
2022-12-24T22:31:21.651Z,100376.53
2022-12-24T22:36:23.457Z,100364.16
2022-12-24T22:41:25.246Z,100372.31
2022-12-24T22:46:26.875Z,100381.16
2022-12-24T22:51:28.499Z,100404.47
2022-12-24T22:56:32.028Z,100386.81
2022-12-24T23:01:39.546Z,100402.72
2022-12-24T23:06:41.607Z,100410.59
2022-12-24T23:11:44.141Z,100420.63
2022-12-24T23:16:45.751Z,100415.97
2022-12-24T23:21:47.482Z,100420.50
2022-12-24T23:26:50.170Z,100431.69
2022-12-24T23:31:51.940Z,100436.28
2022-12-24T23:36:53.608Z,100431.69
2022-12-24T23:41:55.318Z,100423.34
2022-12-24T23:46:56.959Z,100431.78
2022-12-24T23:51:58.604Z,100453.03
2022-12-24T23:57:00.290Z,100433.59
